<?xml version="1.0" encoding="UTF-8"?>
<gpx version="1.1" creator="2bulu-scraper" xmlns="http://www.topografix.com/GPX/1/1">
  <metadata><name>乐山犍为龙潭谷-桫椤峡谷</name><desc>source: 2bulu.com trackId=84079668; exported 2026-09-01T16:21:21.679Z</desc>
    <bounds minlat="29.1595396" minlon="103.7908817" maxlat="29.1646518" maxlon="103.8003681"/>
    <link href="https://www.2bulu.com/track/t-kYK19%252BdxyWfp%252FR2KBg5Tzw%253D%253D.htm"><text>2bulu 源页面</text></link>
  </metadata>
  <wpt lat="29.1638895" lon="103.8003437"><ele>680</ele><name>停车
        </name></wpt>
  <wpt lat="29.1640148" lon="103.8003551"><ele>679</ele><name>
        </name></wpt>
  <wpt lat="29.164318" lon="103.8001434"><ele>686</ele><name>
        </name></wpt>
  <wpt lat="29.1642692" lon="103.8001361"><ele>680</ele><name>
        </name></wpt>
  <wpt lat="29.1634465" lon="103.7996791"><ele>670</ele><name>
        </name></wpt>
  <wpt lat="29.1627169" lon="103.7991062"><ele>663</ele><name>
        </name></wpt>
  <wpt lat="29.1623569" lon="103.7993113"><ele>661</ele><name>折耳根
        </name></wpt>
  <wpt lat="29.1623569" lon="103.7993113"><ele>661</ele><name>
        </name></wpt>
  <wpt lat="29.1615003" lon="103.7994439"><ele>659</ele><name>
        </name></wpt>
  <wpt lat="29.1611261" lon="103.7992361"><ele>650</ele><name>蕨菜
        </name></wpt>
  <wpt lat="29.1604427" lon="103.7991171"><ele>645</ele><name>右边下
        </name></wpt>
  <wpt lat="29.1604427" lon="103.7991171"><ele>645</ele><name>
        </name></wpt>
  <wpt lat="29.1608897" lon="103.7987861"><ele>633</ele><name>
        </name></wpt>
  <wpt lat="29.1613643" lon="103.7979068"><ele>615</ele><name>
        </name></wpt>
  <wpt lat="29.1618436" lon="103.7973005"><ele>612</ele><name>
        </name></wpt>
  <wpt lat="29.1618436" lon="103.7973005"><ele>612</ele><name>车子可以停这里
        </name></wpt>
  <wpt lat="29.1617769" lon="103.7972662"><ele>617</ele><name>
        </name></wpt>
  <wpt lat="29.1616603" lon="103.7963724"><ele>620</ele><name>
        </name></wpt>
  <wpt lat="29.1616349" lon="103.7960964"><ele>615</ele><name>
        </name></wpt>
  <wpt lat="29.1616349" lon="103.7960964"><ele>615</ele><name>
        </name></wpt>
  <wpt lat="29.1611099" lon="103.7959862"><ele>618</ele><name>
        </name></wpt>
  <wpt lat="29.1605728" lon="103.79574"><ele>621</ele><name>
        </name></wpt>
  <wpt lat="29.1603954" lon="103.7956833"><ele>621</ele><name>
        </name></wpt>
  <wpt lat="29.1603954" lon="103.7956833"><ele>621</ele><name>
        </name></wpt>
  <wpt lat="29.1601474" lon="103.7955657"><ele>617</ele><name>
        </name></wpt>
  <wpt lat="29.1599758" lon="103.7955335"><ele>616</ele><name>
        </name></wpt>
  <wpt lat="29.1602879" lon="103.7950606"><ele>582</ele><name>
        </name></wpt>
  <wpt lat="29.1604325" lon="103.7950574"><ele>561</ele><name>
        </name></wpt>
  <wpt lat="29.1606041" lon="103.7950111"><ele>549</ele><name>第一窝梭罗树
        </name></wpt>
  <wpt lat="29.1610219" lon="103.7950218"><ele>532</ele><name>
        </name></wpt>
  <wpt lat="29.1610219" lon="103.7950218"><ele>532</ele><name>
        </name></wpt>
  <wpt lat="29.1612611" lon="103.7948672"><ele>521</ele><name>
        </name></wpt>
  <wpt lat="29.1616885" lon="103.7947468"><ele>498</ele><name>
        </name></wpt>
  <wpt lat="29.1616885" lon="103.7947468"><ele>498</ele><name>
        </name></wpt>
  <wpt lat="29.1621458" lon="103.7945455"><ele>490</ele><name>
        </name></wpt>
  <wpt lat="29.1621458" lon="103.7945455"><ele>490</ele><name>
        </name></wpt>
  <wpt lat="29.1620188" lon="103.794245"><ele>492</ele><name>
        </name></wpt>
  <wpt lat="29.1617879" lon="103.7940584"><ele>495</ele><name>
        </name></wpt>
  <wpt lat="29.1617342" lon="103.7939795"><ele>494</ele><name>
        </name></wpt>
  <wpt lat="29.1617119" lon="103.7939076"><ele>494</ele><name>
        </name></wpt>
  <wpt lat="29.1608807" lon="103.7925369"><ele>484</ele><name>桫椤树很大
        </name></wpt>
  <wpt lat="29.1606071" lon="103.7922081"><ele>498</ele><name>
        </name></wpt>
  <wpt lat="29.1605397" lon="103.7918799"><ele>493</ele><name>
        </name></wpt>
  <wpt lat="29.1605827" lon="103.7917751"><ele>490</ele><name>
        </name></wpt>
  <wpt lat="29.1605827" lon="103.7917751"><ele>490</ele><name>
        </name></wpt>
  <wpt lat="29.1605827" lon="103.7917751"><ele>490</ele><name>
        </name></wpt>
  <wpt lat="29.1606621" lon="103.7916612"><ele>487</ele><name>这里很多桫椤树
        </name></wpt>
  <wpt lat="29.1606621" lon="103.7916612"><ele>487</ele><name>
        </name></wpt>
  <wpt lat="29.1603868" lon="103.7910149"><ele>503</ele><name>
        </name></wpt>
  <wpt lat="29.1601474" lon="103.7908959"><ele>525</ele><name>恐龙蛋，石胆大
        </name></wpt>
  <wpt lat="29.1596394" lon="103.7909972"><ele>510</ele><name>这里最漂亮
        </name></wpt>
  <wpt lat="29.1596519" lon="103.7909828"><ele>499</ele><name>
        </name></wpt>
  <wpt lat="29.1595396" lon="103.7910613"><ele>510</ele><name>瀑布
        </name></wpt>
  <wpt lat="29.1633815" lon="103.7946958"><ele>505</ele><name>
        </name></wpt>
  <wpt lat="29.1635721" lon="103.7946788"><ele>504</ele><name>
        </name></wpt>
  <wpt lat="29.1637223" lon="103.7946167"><ele>508</ele><name>
        </name></wpt>
  <wpt lat="29.1638511" lon="103.7946632"><ele>511</ele><name>
        </name></wpt>
  <wpt lat="29.1614363" lon="103.7948252"><ele>493</ele><name>
        </name></wpt>
  <wpt lat="29.1605897" lon="103.7948981"><ele>529</ele><name>
        </name></wpt>
  <wpt lat="29.1605897" lon="103.7948981"><ele>529</ele><name>
        </name></wpt>
  <wpt lat="29.1598813" lon="103.7954273"><ele>571</ele><name>
        </name></wpt>
  <wpt lat="29.1600604" lon="103.7957263"><ele>597</ele><name>
        </name></wpt>
  <wpt lat="29.1601415" lon="103.7956863"><ele>598</ele><name>
        </name></wpt>
  <wpt lat="29.1602275" lon="103.7957093"><ele>600</ele><name>
        </name></wpt>
  <wpt lat="29.1607638" lon="103.7959642"><ele>607</ele><name>
        </name></wpt>
  <wpt lat="29.1617902" lon="103.7973285"><ele>612</ele><name>
        </name></wpt>
  <wpt lat="29.164339" lon="103.8002719"><ele>673</ele><name>
        </name></wpt>
  <trk><name>乐山犍为龙潭谷-桫椤峡谷</name>
      <trkseg>
        <trkpt lat="29.1646518" lon="103.8001315"><ele>664.29</ele><time>2026-05-09T21:06:10.000Z</time></trkpt>
        <trkpt lat="29.164543" lon="103.8002057"><ele>665.27</ele><time>2026-05-09T21:06:12.000Z</time></trkpt>
        <trkpt lat="29.1644131" lon="103.8002635"><ele>666.38</ele><time>2026-05-09T21:06:14.000Z</time></trkpt>
        <trkpt lat="29.1642947" lon="103.8002905"><ele>667.49</ele><time>2026-05-09T21:06:16.000Z</time></trkpt>
        <trkpt lat="29.1641972" lon="103.8002892"><ele>668.84</ele><time>2026-05-09T21:06:22.000Z</time></trkpt>
        <trkpt lat="29.1641063" lon="103.8003021"><ele>670.97</ele><time>2026-05-09T21:06:26.000Z</time></trkpt>
        <trkpt lat="29.1640001" lon="103.8003394"><ele>672.88</ele><time>2026-05-09T21:06:30.000Z</time></trkpt>
        <trkpt lat="29.1638893" lon="103.8003399"><ele>674.92</ele><time>2026-05-09T21:06:36.000Z</time></trkpt>
        <trkpt lat="29.1638895" lon="103.8003437"><ele>677.32</ele><time>2026-05-09T21:07:50.000Z</time></trkpt>
        <trkpt lat="29.1639787" lon="103.8003681"><ele>678.5</ele><time>2026-05-09T21:11:22.000Z</time></trkpt>
        <trkpt lat="29.1640652" lon="103.8003317"><ele>678.99</ele><time>2026-05-09T21:14:36.000Z</time></trkpt>
        <trkpt lat="29.1641538" lon="103.8002766"><ele>678.82</ele><time>2026-05-09T21:14:48.000Z</time></trkpt>
        <trkpt lat="29.1642342" lon="103.8002132"><ele>681.28</ele><time>2026-05-09T21:14:56.000Z</time></trkpt>
        <trkpt lat="29.164318" lon="103.8001434"><ele>682.92</ele><time>2026-05-09T21:15:08.000Z</time></trkpt>
        <trkpt lat="29.1642692" lon="103.8001361"><ele>684.36</ele><time>2026-05-09T21:15:36.000Z</time></trkpt>
        <trkpt lat="29.164174" lon="103.8001217"><ele>682.4</ele><time>2026-05-09T21:15:50.000Z</time></trkpt>
        <trkpt lat="29.164066" lon="103.8001572"><ele>680.56</ele><time>2026-05-09T21:16:08.000Z</time></trkpt>
        <trkpt lat="29.1639514" lon="103.8001458"><ele>677.87</ele><time>2026-05-09T21:16:18.000Z</time></trkpt>
        <trkpt lat="29.1638765" lon="103.8000792"><ele>674.67</ele><time>2026-05-09T21:16:24.000Z</time></trkpt>
        <trkpt lat="29.1638213" lon="103.7999858"><ele>673.32</ele><time>2026-05-09T21:16:34.000Z</time></trkpt>
        <trkpt lat="29.1637355" lon="103.7999496"><ele>671.95</ele><time>2026-05-09T21:16:54.000Z</time></trkpt>
        <trkpt lat="29.163642" lon="103.7999329"><ele>672.86</ele><time>2026-05-09T21:17:04.000Z</time></trkpt>
        <trkpt lat="29.1635398" lon="103.7999246"><ele>673.02</ele><time>2026-05-09T21:17:16.000Z</time></trkpt>
        <trkpt lat="29.1634426" lon="103.7998876"><ele>672.69</ele><time>2026-05-09T21:17:30.000Z</time></trkpt>
        <trkpt lat="29.163419" lon="103.7997871"><ele>672.63</ele><time>2026-05-09T21:17:42.000Z</time></trkpt>
        <trkpt lat="29.1634465" lon="103.7996791"><ele>671.31</ele><time>2026-05-09T21:17:52.000Z</time></trkpt>
        <trkpt lat="29.1634657" lon="103.7995603"><ele>670.56</ele><time>2026-05-09T21:18:18.000Z</time></trkpt>
        <trkpt lat="29.1635103" lon="103.7994532"><ele>670.74</ele><time>2026-05-09T21:19:02.000Z</time></trkpt>
        <trkpt lat="29.1635149" lon="103.7993441"><ele>670.33</ele><time>2026-05-09T21:19:12.000Z</time></trkpt>
        <trkpt lat="29.1634583" lon="103.7992501"><ele>668.66</ele><time>2026-05-09T21:19:20.000Z</time></trkpt>
        <trkpt lat="29.16338" lon="103.7991817"><ele>667.9</ele><time>2026-05-09T21:19:30.000Z</time></trkpt>
        <trkpt lat="29.1632873" lon="103.7991264"><ele>667.72</ele><time>2026-05-09T21:20:00.000Z</time></trkpt>
        <trkpt lat="29.1631884" lon="103.7990655"><ele>667.8</ele><time>2026-05-09T21:20:10.000Z</time></trkpt>
        <trkpt lat="29.1630847" lon="103.7990174"><ele>668.05</ele><time>2026-05-09T21:20:20.000Z</time></trkpt>
        <trkpt lat="29.1630073" lon="103.7990052"><ele>667.24</ele><time>2026-05-09T21:20:32.000Z</time></trkpt>
        <trkpt lat="29.1629294" lon="103.799061"><ele>667.67</ele><time>2026-05-09T21:21:08.000Z</time></trkpt>
        <trkpt lat="29.1628351" lon="103.7991074"><ele>667.9</ele><time>2026-05-09T21:21:22.000Z</time></trkpt>
        <trkpt lat="29.1627169" lon="103.7991062"><ele>667.78</ele><time>2026-05-09T21:21:32.000Z</time></trkpt>
        <trkpt lat="29.1626106" lon="103.799133"><ele>665.88</ele><time>2026-05-09T21:22:44.000Z</time></trkpt>
        <trkpt lat="29.1625254" lon="103.799186"><ele>665.95</ele><time>2026-05-09T21:22:52.000Z</time></trkpt>
        <trkpt lat="29.1624482" lon="103.7992829"><ele>666.01</ele><time>2026-05-09T21:23:00.000Z</time></trkpt>
        <trkpt lat="29.1623569" lon="103.7993113"><ele>665.31</ele><time>2026-05-09T21:23:22.000Z</time></trkpt>
        <trkpt lat="29.1622673" lon="103.7992856"><ele>663.62</ele><time>2026-05-09T21:24:02.000Z</time></trkpt>
        <trkpt lat="29.1621694" lon="103.7993116"><ele>664.44</ele><time>2026-05-09T21:24:12.000Z</time></trkpt>
        <trkpt lat="29.162082" lon="103.7993596"><ele>662.82</ele><time>2026-05-09T21:24:16.000Z</time></trkpt>
        <trkpt lat="29.161994" lon="103.799434"><ele>662.18</ele><time>2026-05-09T21:24:26.000Z</time></trkpt>
        <trkpt lat="29.1619029" lon="103.7995043"><ele>661.2</ele><time>2026-05-09T21:24:34.000Z</time></trkpt>
        <trkpt lat="29.1618061" lon="103.7995313"><ele>659.99</ele><time>2026-05-09T21:24:44.000Z</time></trkpt>
        <trkpt lat="29.1617044" lon="103.7994974"><ele>659.77</ele><time>2026-05-09T21:24:54.000Z</time></trkpt>
        <trkpt lat="29.1615952" lon="103.7994776"><ele>658.7</ele><time>2026-05-09T21:25:04.000Z</time></trkpt>
        <trkpt lat="29.1615003" lon="103.7994439"><ele>657.29</ele><time>2026-05-09T21:25:28.000Z</time></trkpt>
        <trkpt lat="29.161409" lon="103.7993882"><ele>657.93</ele><time>2026-05-09T21:25:36.000Z</time></trkpt>
        <trkpt lat="29.1613101" lon="103.7993506"><ele>657.19</ele><time>2026-05-09T21:25:46.000Z</time></trkpt>
        <trkpt lat="29.1612062" lon="103.7993081"><ele>656.14</ele><time>2026-05-09T21:25:56.000Z</time></trkpt>
        <trkpt lat="29.1611261" lon="103.7992361"><ele>654.2</ele><time>2026-05-09T21:26:06.000Z</time></trkpt>
        <trkpt lat="29.1610314" lon="103.7992147"><ele>652.29</ele><time>2026-05-09T21:26:36.000Z</time></trkpt>
        <trkpt lat="29.1609369" lon="103.7992367"><ele>650.8</ele><time>2026-05-09T21:26:46.000Z</time></trkpt>
        <trkpt lat="29.1608323" lon="103.7992381"><ele>648.44</ele><time>2026-05-09T21:26:56.000Z</time></trkpt>
        <trkpt lat="29.1607261" lon="103.7992244"><ele>647.06</ele><time>2026-05-09T21:27:06.000Z</time></trkpt>
        <trkpt lat="29.1606235" lon="103.7991925"><ele>645.79</ele><time>2026-05-09T21:27:26.000Z</time></trkpt>
        <trkpt lat="29.1605338" lon="103.7991511"><ele>644.82</ele><time>2026-05-09T21:27:34.000Z</time></trkpt>
        <trkpt lat="29.1604427" lon="103.7991171"><ele>644.89</ele><time>2026-05-09T21:27:42.000Z</time></trkpt>
        <trkpt lat="29.160448" lon="103.7990338"><ele>644.89</ele><time>2026-05-09T21:28:08.000Z</time></trkpt>
        <trkpt lat="29.1605445" lon="103.7989747"><ele>644.49</ele><time>2026-05-09T21:28:22.000Z</time></trkpt>
        <trkpt lat="29.1606515" lon="103.7989433"><ele>643.66</ele><time>2026-05-09T21:28:30.000Z</time></trkpt>
        <trkpt lat="29.1607623" lon="103.7989429"><ele>642.16</ele><time>2026-05-09T21:28:54.000Z</time></trkpt>
        <trkpt lat="29.1608295" lon="103.7988765"><ele>639.69</ele><time>2026-05-09T21:29:08.000Z</time></trkpt>
        <trkpt lat="29.1608897" lon="103.7987861"><ele>637.73</ele><time>2026-05-09T21:29:20.000Z</time></trkpt>
        <trkpt lat="29.1609384" lon="103.7986875"><ele>635.81</ele><time>2026-05-09T21:29:46.000Z</time></trkpt>
        <trkpt lat="29.1610231" lon="103.7986228"><ele>635.72</ele><time>2026-05-09T21:30:04.000Z</time></trkpt>
        <trkpt lat="29.161113" lon="103.7985651"><ele>634.66</ele><time>2026-05-09T21:30:16.000Z</time></trkpt>
        <trkpt lat="29.1611925" lon="103.7985017"><ele>632.73</ele><time>2026-05-09T21:30:26.000Z</time></trkpt>
        <trkpt lat="29.1612739" lon="103.7984295"><ele>630.68</ele><time>2026-05-09T21:30:34.000Z</time></trkpt>
        <trkpt lat="29.1613536" lon="103.7983461"><ele>625.01</ele><time>2026-05-09T21:30:42.000Z</time></trkpt>
        <trkpt lat="29.1613922" lon="103.7982373"><ele>622.8</ele><time>2026-05-09T21:30:50.000Z</time></trkpt>
        <trkpt lat="29.1614006" lon="103.7981244"><ele>620.89</ele><time>2026-05-09T21:31:00.000Z</time></trkpt>
        <trkpt lat="29.1613848" lon="103.7980126"><ele>619.21</ele><time>2026-05-09T21:31:08.000Z</time></trkpt>
        <trkpt lat="29.1613643" lon="103.7979068"><ele>617.63</ele><time>2026-05-09T21:31:16.000Z</time></trkpt>
        <trkpt lat="29.1613592" lon="103.7977997"><ele>616.66</ele><time>2026-05-09T21:31:34.000Z</time></trkpt>
        <trkpt lat="29.1614028" lon="103.7976891"><ele>617.2</ele><time>2026-05-09T21:31:42.000Z</time></trkpt>
        <trkpt lat="29.161485" lon="103.7976173"><ele>617.92</ele><time>2026-05-09T21:31:50.000Z</time></trkpt>
        <trkpt lat="29.16158" lon="103.7975799"><ele>617.83</ele><time>2026-05-09T21:31:58.000Z</time></trkpt>
        <trkpt lat="29.1616735" lon="103.7975453"><ele>617.71</ele><time>2026-05-09T21:32:06.000Z</time></trkpt>
        <trkpt lat="29.1617494" lon="103.797487"><ele>617.36</ele><time>2026-05-09T21:32:14.000Z</time></trkpt>
        <trkpt lat="29.1618004" lon="103.797396"><ele>616.47</ele><time>2026-05-09T21:32:22.000Z</time></trkpt>
        <trkpt lat="29.1618436" lon="103.7973005"><ele>615.29</ele><time>2026-05-09T21:32:32.000Z</time></trkpt>
        <trkpt lat="29.1617769" lon="103.7972662"><ele>613.85</ele><time>2026-05-09T21:33:28.000Z</time></trkpt>
        <trkpt lat="29.161667" lon="103.7972565"><ele>615.08</ele><time>2026-05-09T21:33:50.000Z</time></trkpt>
        <trkpt lat="29.1615708" lon="103.797217"><ele>615.11</ele><time>2026-05-09T21:34:00.000Z</time></trkpt>
        <trkpt lat="29.1615339" lon="103.7971286"><ele>614.55</ele><time>2026-05-09T21:34:06.000Z</time></trkpt>
        <trkpt lat="29.1614817" lon="103.7970608"><ele>613.1</ele><time>2026-05-09T21:34:40.000Z</time></trkpt>
        <trkpt lat="29.1615658" lon="103.7970038"><ele>614.21</ele><time>2026-05-09T21:35:50.000Z</time></trkpt>
        <trkpt lat="29.1615514" lon="103.7968895"><ele>615.84</ele><time>2026-05-09T21:36:02.000Z</time></trkpt>
        <trkpt lat="29.1615409" lon="103.7967838"><ele>616.31</ele><time>2026-05-09T21:36:10.000Z</time></trkpt>
        <trkpt lat="29.1615174" lon="103.7966747"><ele>616.67</ele><time>2026-05-09T21:36:18.000Z</time></trkpt>
        <trkpt lat="29.1615228" lon="103.7965538"><ele>617.5</ele><time>2026-05-09T21:36:26.000Z</time></trkpt>
        <trkpt lat="29.1615776" lon="103.796449"><ele>618.55</ele><time>2026-05-09T21:36:36.000Z</time></trkpt>
        <trkpt lat="29.1616603" lon="103.7963724"><ele>619.33</ele><time>2026-05-09T21:36:46.000Z</time></trkpt>
        <trkpt lat="29.1617042" lon="103.7962807"><ele>619.69</ele><time>2026-05-09T21:37:02.000Z</time></trkpt>
        <trkpt lat="29.1616989" lon="103.7961698"><ele>620.13</ele><time>2026-05-09T21:37:16.000Z</time></trkpt>
        <trkpt lat="29.1616349" lon="103.7960964"><ele>618.98</ele><time>2026-05-09T21:37:30.000Z</time></trkpt>
        <trkpt lat="29.161533" lon="103.796077"><ele>617.36</ele><time>2026-05-09T21:38:02.000Z</time></trkpt>
        <trkpt lat="29.1614354" lon="103.7960462"><ele>616.68</ele><time>2026-05-09T21:38:10.000Z</time></trkpt>
        <trkpt lat="29.1613193" lon="103.7960052"><ele>616.53</ele><time>2026-05-09T21:38:20.000Z</time></trkpt>
        <trkpt lat="29.1612087" lon="103.7959885"><ele>616.49</ele><time>2026-05-09T21:38:32.000Z</time></trkpt>
        <trkpt lat="29.1611099" lon="103.7959862"><ele>617.43</ele><time>2026-05-09T21:38:46.000Z</time></trkpt>
        <trkpt lat="29.1610011" lon="103.795992"><ele>617.72</ele><time>2026-05-09T21:39:08.000Z</time></trkpt>
        <trkpt lat="29.1609011" lon="103.795987"><ele>617.8</ele><time>2026-05-09T21:39:16.000Z</time></trkpt>
        <trkpt lat="29.1608157" lon="103.795932"><ele>618.29</ele><time>2026-05-09T21:39:24.000Z</time></trkpt>
        <trkpt lat="29.1607403" lon="103.7958497"><ele>620.4</ele><time>2026-05-09T21:39:30.000Z</time></trkpt>
        <trkpt lat="29.1606591" lon="103.7957919"><ele>621.31</ele><time>2026-05-09T21:39:38.000Z</time></trkpt>
        <trkpt lat="29.1605728" lon="103.79574"><ele>621.71</ele><time>2026-05-09T21:39:48.000Z</time></trkpt>
        <trkpt lat="29.1604847" lon="103.7957095"><ele>621.37</ele><time>2026-05-09T21:40:22.000Z</time></trkpt>
        <trkpt lat="29.1603954" lon="103.7956833"><ele>621.27</ele><time>2026-05-09T21:40:36.000Z</time></trkpt>
        <trkpt lat="29.1603299" lon="103.7956144"><ele>620.95</ele><time>2026-05-09T21:41:22.000Z</time></trkpt>
        <trkpt lat="29.1602456" lon="103.7955832"><ele>619.8</ele><time>2026-05-09T21:42:08.000Z</time></trkpt>
        <trkpt lat="29.1601474" lon="103.7955657"><ele>618.89</ele><time>2026-05-09T21:43:06.000Z</time></trkpt>
        <trkpt lat="29.1600527" lon="103.7955753"><ele>618.28</ele><time>2026-05-09T21:43:30.000Z</time></trkpt>
        <trkpt lat="29.1599758" lon="103.7955335"><ele>617.56</ele><time>2026-05-09T21:43:50.000Z</time></trkpt>
        <trkpt lat="29.1600295" lon="103.7955159"><ele>616.89</ele><time>2026-05-09T21:44:38.000Z</time></trkpt>
        <trkpt lat="29.1600185" lon="103.7954385"><ele>615.48</ele><time>2026-05-09T21:45:10.000Z</time></trkpt>
        <trkpt lat="29.159968" lon="103.7953587"><ele>612.92</ele><time>2026-05-09T21:45:20.000Z</time></trkpt>
        <trkpt lat="29.1599418" lon="103.7952378"><ele>610.57</ele><time>2026-05-09T21:46:22.000Z</time></trkpt>
        <trkpt lat="29.160011" lon="103.7951579"><ele>605.56</ele><time>2026-05-09T21:47:08.000Z</time></trkpt>
        <trkpt lat="29.1600976" lon="103.7951144"><ele>601.36</ele><time>2026-05-09T21:47:32.000Z</time></trkpt>
        <trkpt lat="29.1601877" lon="103.7950939"><ele>598.32</ele><time>2026-05-09T21:48:12.000Z</time></trkpt>
        <trkpt lat="29.1602719" lon="103.7951266"><ele>595.02</ele><time>2026-05-09T21:48:38.000Z</time></trkpt>
        <trkpt lat="29.1602879" lon="103.7950606"><ele>590.96</ele><time>2026-05-09T21:49:24.000Z</time></trkpt>
        <trkpt lat="29.160353" lon="103.7950065"><ele>586.94</ele><time>2026-05-09T21:50:50.000Z</time></trkpt>
        <trkpt lat="29.1604325" lon="103.7950574"><ele>576.85</ele><time>2026-05-09T21:51:10.000Z</time></trkpt>
        <trkpt lat="29.1605199" lon="103.7950509"><ele>569.93</ele><time>2026-05-09T21:52:02.000Z</time></trkpt>
        <trkpt lat="29.1606041" lon="103.7950111"><ele>564.01</ele><time>2026-05-09T21:52:34.000Z</time></trkpt>
        <trkpt lat="29.1606718" lon="103.7949223"><ele>557.41</ele><time>2026-05-09T21:55:32.000Z</time></trkpt>
        <trkpt lat="29.1607566" lon="103.7949598"><ele>549.24</ele><time>2026-05-09T21:56:04.000Z</time></trkpt>
        <trkpt lat="29.1608368" lon="103.7950195"><ele>544.25</ele><time>2026-05-09T21:56:24.000Z</time></trkpt>
        <trkpt lat="29.1609303" lon="103.7950352"><ele>540.8</ele><time>2026-05-09T21:56:38.000Z</time></trkpt>
        <trkpt lat="29.1610219" lon="103.7950218"><ele>538.31</ele><time>2026-05-09T21:57:08.000Z</time></trkpt>
        <trkpt lat="29.1611168" lon="103.7950066"><ele>535.51</ele><time>2026-05-09T21:57:48.000Z</time></trkpt>
        <trkpt lat="29.1611967" lon="103.7949425"><ele>532.72</ele><time>2026-05-09T21:59:00.000Z</time></trkpt>
        <trkpt lat="29.1612611" lon="103.7948672"><ele>528.92</ele><time>2026-05-09T21:59:26.000Z</time></trkpt>
        <trkpt lat="29.1613557" lon="103.7948248"><ele>525.37</ele><time>2026-05-09T21:59:54.000Z</time></trkpt>
        <trkpt lat="29.1613559" lon="103.7948471"><ele>519.64</ele><time>2026-05-09T22:00:08.000Z</time></trkpt>
        <trkpt lat="29.161423" lon="103.7948494"><ele>515.49</ele><time>2026-05-09T22:00:46.000Z</time></trkpt>
        <trkpt lat="29.1615103" lon="103.7948291"><ele>511.23</ele><time>2026-05-09T22:01:08.000Z</time></trkpt>
        <trkpt lat="29.1615995" lon="103.7947857"><ele>507.42</ele><time>2026-05-09T22:01:48.000Z</time></trkpt>
        <trkpt lat="29.1616885" lon="103.7947468"><ele>504.29</ele><time>2026-05-09T22:02:38.000Z</time></trkpt>
        <trkpt lat="29.1617804" lon="103.7947141"><ele>501.43</ele><time>2026-05-09T22:03:34.000Z</time></trkpt>
        <trkpt lat="29.1618705" lon="103.7947229"><ele>498.71</ele><time>2026-05-09T22:03:48.000Z</time></trkpt>
        <trkpt lat="29.1619654" lon="103.7947133"><ele>496.68</ele><time>2026-05-09T22:03:58.000Z</time></trkpt>
        <trkpt lat="29.1620617" lon="103.7947052"><ele>494.76</ele><time>2026-05-09T22:04:10.000Z</time></trkpt>
        <trkpt lat="29.1621334" lon="103.7946478"><ele>493.61</ele><time>2026-05-09T22:04:36.000Z</time></trkpt>
        <trkpt lat="29.1621458" lon="103.7945455"><ele>492.1</ele><time>2026-05-09T22:04:58.000Z</time></trkpt>
        <trkpt lat="29.162144" lon="103.7944215"><ele>491.12</ele><time>2026-05-09T22:06:08.000Z</time></trkpt>
        <trkpt lat="29.162086" lon="103.7943231"><ele>492.19</ele><time>2026-05-09T22:06:28.000Z</time></trkpt>
        <trkpt lat="29.1620188" lon="103.794245"><ele>492.59</ele><time>2026-05-09T22:06:44.000Z</time></trkpt>
        <trkpt lat="29.1619543" lon="103.7941731"><ele>492.47</ele><time>2026-05-09T22:07:56.000Z</time></trkpt>
        <trkpt lat="29.1618487" lon="103.7941385"><ele>492.8</ele><time>2026-05-09T22:09:12.000Z</time></trkpt>
        <trkpt lat="29.1617879" lon="103.7940584"><ele>493.88</ele><time>2026-05-09T22:09:50.000Z</time></trkpt>
        <trkpt lat="29.1617342" lon="103.7939795"><ele>494.14</ele><time>2026-05-09T22:10:10.000Z</time></trkpt>
        <trkpt lat="29.1617141" lon="103.79386"><ele>494.27</ele><time>2026-05-09T22:13:40.000Z</time></trkpt>
        <trkpt lat="29.1616599" lon="103.7937654"><ele>495.45</ele><time>2026-05-09T22:14:26.000Z</time></trkpt>
        <trkpt lat="29.1617025" lon="103.7936741"><ele>497.05</ele><time>2026-05-09T22:17:54.000Z</time></trkpt>
        <trkpt lat="29.1617017" lon="103.7935674"><ele>497.43</ele><time>2026-05-09T22:18:54.000Z</time></trkpt>
        <trkpt lat="29.1616845" lon="103.793446"><ele>497.17</ele><time>2026-05-09T22:19:18.000Z</time></trkpt>
        <trkpt lat="29.1616048" lon="103.7933886"><ele>495.65</ele><time>2026-05-09T22:22:22.000Z</time></trkpt>
        <trkpt lat="29.1615122" lon="103.7933775"><ele>493.12</ele><time>2026-05-09T22:23:18.000Z</time></trkpt>
        <trkpt lat="29.1614211" lon="103.7933322"><ele>491.5</ele><time>2026-05-09T22:24:28.000Z</time></trkpt>
        <trkpt lat="29.1613821" lon="103.7932313"><ele>491.87</ele><time>2026-05-09T22:24:48.000Z</time></trkpt>
        <trkpt lat="29.1613286" lon="103.7931478"><ele>491.78</ele><time>2026-05-09T22:25:00.000Z</time></trkpt>
        <trkpt lat="29.1612896" lon="103.7930502"><ele>490.96</ele><time>2026-05-09T22:25:22.000Z</time></trkpt>
        <trkpt lat="29.1612502" lon="103.7929554"><ele>490.71</ele><time>2026-05-09T22:25:46.000Z</time></trkpt>
        <trkpt lat="29.1611595" lon="103.7929287"><ele>491.51</ele><time>2026-05-09T22:27:34.000Z</time></trkpt>
        <trkpt lat="29.1610912" lon="103.792857"><ele>492.15</ele><time>2026-05-09T22:32:34.000Z</time></trkpt>
        <trkpt lat="29.1610158" lon="103.792798"><ele>490</ele><time>2026-05-09T22:33:02.000Z</time></trkpt>
        <trkpt lat="29.1609956" lon="103.7926955"><ele>488.92</ele><time>2026-05-09T22:33:38.000Z</time></trkpt>
        <trkpt lat="29.1609564" lon="103.7925901"><ele>489.16</ele><time>2026-05-09T22:33:58.000Z</time></trkpt>
        <trkpt lat="29.1608807" lon="103.7925369"><ele>489.2</ele><time>2026-05-09T22:34:42.000Z</time></trkpt>
        <trkpt lat="29.1607875" lon="103.7924846"><ele>486.85</ele><time>2026-05-09T22:35:52.000Z</time></trkpt>
        <trkpt lat="29.1607233" lon="103.7925648"><ele>485.11</ele><time>2026-05-09T22:36:06.000Z</time></trkpt>
        <trkpt lat="29.1607395" lon="103.7924832"><ele>484.4</ele><time>2026-05-09T22:36:48.000Z</time></trkpt>
        <trkpt lat="29.1607695" lon="103.792366"><ele>486.42</ele><time>2026-05-09T22:37:00.000Z</time></trkpt>
        <trkpt lat="29.160732" lon="103.7922629"><ele>489</ele><time>2026-05-09T22:37:18.000Z</time></trkpt>
        <trkpt lat="29.1606571" lon="103.7922692"><ele>491.56</ele><time>2026-05-09T22:37:36.000Z</time></trkpt>
        <trkpt lat="29.1606071" lon="103.7922081"><ele>491.29</ele><time>2026-05-09T22:37:56.000Z</time></trkpt>
        <trkpt lat="29.1605637" lon="103.7921141"><ele>494.21</ele><time>2026-05-09T22:38:30.000Z</time></trkpt>
        <trkpt lat="29.1605525" lon="103.7919999"><ele>496.6</ele><time>2026-05-09T22:38:48.000Z</time></trkpt>
        <trkpt lat="29.1605397" lon="103.7918799"><ele>498.31</ele><time>2026-05-09T22:39:10.000Z</time></trkpt>
        <trkpt lat="29.1605827" lon="103.7917751"><ele>496.06</ele><time>2026-05-09T22:39:38.000Z</time></trkpt>
        <trkpt lat="29.1606621" lon="103.7916612"><ele>493.46</ele><time>2026-05-09T22:40:20.000Z</time></trkpt>
        <trkpt lat="29.1607947" lon="103.7916305"><ele>490.85</ele><time>2026-05-09T22:46:04.000Z</time></trkpt>
        <trkpt lat="29.1606273" lon="103.7917854"><ele>493.83</ele><time>2026-05-09T22:46:20.000Z</time></trkpt>
        <trkpt lat="29.1606677" lon="103.7916731"><ele>493.32</ele><time>2026-05-09T22:50:38.000Z</time></trkpt>
        <trkpt lat="29.1605897" lon="103.7917676"><ele>491.94</ele><time>2026-05-09T22:53:18.000Z</time></trkpt>
        <trkpt lat="29.1605267" lon="103.7918468"><ele>490.15</ele><time>2026-05-09T22:53:32.000Z</time></trkpt>
        <trkpt lat="29.1604386" lon="103.7918385"><ele>489.47</ele><time>2026-05-09T22:53:44.000Z</time></trkpt>
        <trkpt lat="29.1604807" lon="103.7917891"><ele>489.01</ele><time>2026-05-09T22:54:10.000Z</time></trkpt>
        <trkpt lat="29.1605077" lon="103.791858"><ele>489.06</ele><time>2026-05-09T22:54:26.000Z</time></trkpt>
        <trkpt lat="29.1604926" lon="103.7918057"><ele>489.43</ele><time>2026-05-09T22:55:10.000Z</time></trkpt>
        <trkpt lat="29.1604919" lon="103.7917037"><ele>488.24</ele><time>2026-05-09T22:55:58.000Z</time></trkpt>
        <trkpt lat="29.1604169" lon="103.7916575"><ele>487.8</ele><time>2026-05-09T22:56:20.000Z</time></trkpt>
        <trkpt lat="29.1603392" lon="103.7915886"><ele>487.59</ele><time>2026-05-09T22:57:02.000Z</time></trkpt>
        <trkpt lat="29.1602964" lon="103.7914871"><ele>487.92</ele><time>2026-05-09T22:57:16.000Z</time></trkpt>
        <trkpt lat="29.1602967" lon="103.7913701"><ele>487.68</ele><time>2026-05-09T22:58:18.000Z</time></trkpt>
        <trkpt lat="29.1602275" lon="103.7912854"><ele>487.87</ele><time>2026-05-09T22:58:36.000Z</time></trkpt>
        <trkpt lat="29.1601378" lon="103.7912616"><ele>488.12</ele><time>2026-05-09T22:59:30.000Z</time></trkpt>
        <trkpt lat="29.1600464" lon="103.7912694"><ele>496.27</ele><time>2026-05-09T23:00:02.000Z</time></trkpt>
        <trkpt lat="29.1601022" lon="103.7911871"><ele>502.06</ele><time>2026-05-09T23:01:16.000Z</time></trkpt>
        <trkpt lat="29.1601758" lon="103.7911194"><ele>503.92</ele><time>2026-05-09T23:02:00.000Z</time></trkpt>
        <trkpt lat="29.1602701" lon="103.7910651"><ele>504.26</ele><time>2026-05-09T23:02:50.000Z</time></trkpt>
        <trkpt lat="29.1603868" lon="103.7910149"><ele>503.35</ele><time>2026-05-09T23:02:58.000Z</time></trkpt>
        <trkpt lat="29.1603564" lon="103.790962"><ele>503.01</ele><time>2026-05-09T23:03:24.000Z</time></trkpt>
        <trkpt lat="29.1602573" lon="103.7909552"><ele>506.11</ele><time>2026-05-09T23:03:34.000Z</time></trkpt>
        <trkpt lat="29.1601474" lon="103.7908959"><ele>510.33</ele><time>2026-05-09T23:04:56.000Z</time></trkpt>
        <trkpt lat="29.1602388" lon="103.7909086"><ele>516.59</ele><time>2026-05-09T23:05:34.000Z</time></trkpt>
        <trkpt lat="29.1601701" lon="103.7909216"><ele>519.97</ele><time>2026-05-09T23:06:00.000Z</time></trkpt>
        <trkpt lat="29.1602242" lon="103.7909431"><ele>522</ele><time>2026-05-09T23:06:34.000Z</time></trkpt>
        <trkpt lat="29.1603107" lon="103.7909073"><ele>522.46</ele><time>2026-05-09T23:06:44.000Z</time></trkpt>
        <trkpt lat="29.1602208" lon="103.7909052"><ele>522.33</ele><time>2026-05-09T23:08:00.000Z</time></trkpt>
        <trkpt lat="29.1601333" lon="103.7909452"><ele>518.11</ele><time>2026-05-09T23:08:16.000Z</time></trkpt>
        <trkpt lat="29.1600398" lon="103.7909888"><ele>516.95</ele><time>2026-05-09T23:08:42.000Z</time></trkpt>
        <trkpt lat="29.1599584" lon="103.7910422"><ele>518.43</ele><time>2026-05-09T23:09:02.000Z</time></trkpt>
        <trkpt lat="29.1598738" lon="103.7910799"><ele>519.02</ele><time>2026-05-09T23:09:54.000Z</time></trkpt>
        <trkpt lat="29.1597932" lon="103.791047"><ele>515.58</ele><time>2026-05-09T23:10:14.000Z</time></trkpt>
        <trkpt lat="29.1597009" lon="103.7910607"><ele>512.33</ele><time>2026-05-09T23:10:24.000Z</time></trkpt>
        <trkpt lat="29.1596394" lon="103.7909972"><ele>510.34</ele><time>2026-05-09T23:11:00.000Z</time></trkpt>
        <trkpt lat="29.1595851" lon="103.7910547"><ele>510.1</ele><time>2026-05-09T23:14:54.000Z</time></trkpt>
        <trkpt lat="29.1596519" lon="103.7909828"><ele>504.53</ele><time>2026-05-09T23:16:14.000Z</time></trkpt>
        <trkpt lat="29.1596738" lon="103.7908818"><ele>502.17</ele><time>2026-05-09T23:20:24.000Z</time></trkpt>
        <trkpt lat="29.1595687" lon="103.7909329"><ele>503.9</ele><time>2026-05-09T23:20:32.000Z</time></trkpt>
        <trkpt lat="29.1596071" lon="103.7910024"><ele>504.85</ele><time>2026-05-09T23:21:08.000Z</time></trkpt>
        <trkpt lat="29.1595396" lon="103.7910613"><ele>506.18</ele><time>2026-05-09T23:23:52.000Z</time></trkpt>
        <trkpt lat="29.1595873" lon="103.7909671"><ele>507.71</ele><time>2026-05-09T23:34:44.000Z</time></trkpt>
        <trkpt lat="29.1596864" lon="103.790948"><ele>509.97</ele><time>2026-05-09T23:36:32.000Z</time></trkpt>
        <trkpt lat="29.1597803" lon="103.7909157"><ele>514.87</ele><time>2026-05-09T23:38:20.000Z</time></trkpt>
        <trkpt lat="29.1596816" lon="103.7908817"><ele>518.2</ele><time>2026-05-09T23:41:36.000Z</time></trkpt>
        <trkpt lat="29.1595945" lon="103.7909077"><ele>523.74</ele><time>2026-05-09T23:41:56.000Z</time></trkpt>
        <trkpt lat="29.1596038" lon="103.7910141"><ele>525.73</ele><time>2026-05-09T23:44:38.000Z</time></trkpt>
        <trkpt lat="29.1596763" lon="103.7910957"><ele>528.69</ele><time>2026-05-09T23:52:22.000Z</time></trkpt>
        <trkpt lat="29.1597411" lon="103.7911723"><ele>528.99</ele><time>2026-05-09T23:52:40.000Z</time></trkpt>
        <trkpt lat="29.1598217" lon="103.791238"><ele>529.7</ele><time>2026-05-09T23:53:16.000Z</time></trkpt>
        <trkpt lat="29.1598523" lon="103.791335"><ele>530.2</ele><time>2026-05-09T23:53:30.000Z</time></trkpt>
        <trkpt lat="29.1598566" lon="103.7913785"><ele>529.5</ele><time>2026-05-09T23:53:42.000Z</time></trkpt>
        <trkpt lat="29.1599246" lon="103.7913506"><ele>528.48</ele><time>2026-05-09T23:54:00.000Z</time></trkpt>
        <trkpt lat="29.1600155" lon="103.7913453"><ele>526.4</ele><time>2026-05-09T23:54:08.000Z</time></trkpt>
        <trkpt lat="29.1600976" lon="103.7913869"><ele>522.7</ele><time>2026-05-09T23:54:26.000Z</time></trkpt>
        <trkpt lat="29.1600974" lon="103.7914836"><ele>520.97</ele><time>2026-05-09T23:54:40.000Z</time></trkpt>
        <trkpt lat="29.1601256" lon="103.7915881"><ele>520.14</ele><time>2026-05-09T23:55:16.000Z</time></trkpt>
        <trkpt lat="29.1601816" lon="103.7916977"><ele>518.26</ele><time>2026-05-09T23:55:26.000Z</time></trkpt>
        <trkpt lat="29.1602173" lon="103.7918034"><ele>514.9</ele><time>2026-05-09T23:55:38.000Z</time></trkpt>
        <trkpt lat="29.1602649" lon="103.7919114"><ele>512.5</ele><time>2026-05-09T23:55:50.000Z</time></trkpt>
        <trkpt lat="29.1603384" lon="103.7919799"><ele>510.99</ele><time>2026-05-09T23:56:02.000Z</time></trkpt>
        <trkpt lat="29.1603493" lon="103.7920741"><ele>509.9</ele><time>2026-05-09T23:56:52.000Z</time></trkpt>
        <trkpt lat="29.1603846" lon="103.7921662"><ele>511.21</ele><time>2026-05-09T23:57:48.000Z</time></trkpt>
        <trkpt lat="29.1604406" lon="103.792249"><ele>515.61</ele><time>2026-05-09T23:58:04.000Z</time></trkpt>
        <trkpt lat="29.1604569" lon="103.7923513"><ele>520.57</ele><time>2026-05-09T23:58:22.000Z</time></trkpt>
        <trkpt lat="29.1604692" lon="103.7924577"><ele>527.11</ele><time>2026-05-09T23:58:32.000Z</time></trkpt>
        <trkpt lat="29.1605264" lon="103.7925284"><ele>531.36</ele><time>2026-05-09T23:58:46.000Z</time></trkpt>
        <trkpt lat="29.1605875" lon="103.7926156"><ele>535.71</ele><time>2026-05-09T23:58:56.000Z</time></trkpt>
        <trkpt lat="29.1606663" lon="103.7926931"><ele>538.24</ele><time>2026-05-09T23:59:06.000Z</time></trkpt>
        <trkpt lat="29.1607467" lon="103.7927778"><ele>539.59</ele><time>2026-05-09T23:59:18.000Z</time></trkpt>
        <trkpt lat="29.1608182" lon="103.7928517"><ele>540.24</ele><time>2026-05-09T23:59:32.000Z</time></trkpt>
        <trkpt lat="29.1609501" lon="103.7928842"><ele>541.29</ele><time>2026-05-09T23:59:46.000Z</time></trkpt>
        <trkpt lat="29.161051" lon="103.7929414"><ele>530.24</ele><time>2026-05-09T23:59:54.000Z</time></trkpt>
        <trkpt lat="29.161129" lon="103.7930164"><ele>524.02</ele><time>2026-05-10T00:00:04.000Z</time></trkpt>
        <trkpt lat="29.1612055" lon="103.7930823"><ele>521.31</ele><time>2026-05-10T00:00:14.000Z</time></trkpt>
        <trkpt lat="29.1612949" lon="103.7931133"><ele>520.16</ele><time>2026-05-10T00:00:26.000Z</time></trkpt>
        <trkpt lat="29.1613261" lon="103.793211"><ele>520.74</ele><time>2026-05-10T00:00:38.000Z</time></trkpt>
        <trkpt lat="29.16136" lon="103.7933214"><ele>521.04</ele><time>2026-05-10T00:00:52.000Z</time></trkpt>
        <trkpt lat="29.1614027" lon="103.7934206"><ele>520.93</ele><time>2026-05-10T00:01:02.000Z</time></trkpt>
        <trkpt lat="29.1613836" lon="103.7935249"><ele>521.62</ele><time>2026-05-10T00:01:10.000Z</time></trkpt>
        <trkpt lat="29.1614374" lon="103.7935876"><ele>526.42</ele><time>2026-05-10T00:01:20.000Z</time></trkpt>
        <trkpt lat="29.161535" lon="103.7936467"><ele>529.65</ele><time>2026-05-10T00:01:26.000Z</time></trkpt>
        <trkpt lat="29.1616397" lon="103.7936893"><ele>523.53</ele><time>2026-05-10T00:01:34.000Z</time></trkpt>
        <trkpt lat="29.1616903" lon="103.7937715"><ele>518.88</ele><time>2026-05-10T00:01:50.000Z</time></trkpt>
        <trkpt lat="29.1617386" lon="103.7938699"><ele>517.1</ele><time>2026-05-10T00:02:14.000Z</time></trkpt>
        <trkpt lat="29.1617846" lon="103.7939636"><ele>514.99</ele><time>2026-05-10T00:02:32.000Z</time></trkpt>
        <trkpt lat="29.1618507" lon="103.7940434"><ele>515.25</ele><time>2026-05-10T00:02:42.000Z</time></trkpt>
        <trkpt lat="29.161933" lon="103.7940976"><ele>514.47</ele><time>2026-05-10T00:02:52.000Z</time></trkpt>
        <trkpt lat="29.1619923" lon="103.7941736"><ele>514.64</ele><time>2026-05-10T00:03:02.000Z</time></trkpt>
        <trkpt lat="29.162074" lon="103.7942564"><ele>514.54</ele><time>2026-05-10T00:03:12.000Z</time></trkpt>
        <trkpt lat="29.1621405" lon="103.7943438"><ele>513.72</ele><time>2026-05-10T00:03:22.000Z</time></trkpt>
        <trkpt lat="29.1622202" lon="103.7944065"><ele>512.61</ele><time>2026-05-10T00:03:38.000Z</time></trkpt>
        <trkpt lat="29.1623101" lon="103.7944352"><ele>512.26</ele><time>2026-05-10T00:04:12.000Z</time></trkpt>
        <trkpt lat="29.1623996" lon="103.794481"><ele>516.05</ele><time>2026-05-10T00:04:26.000Z</time></trkpt>
        <trkpt lat="29.1624871" lon="103.7945409"><ele>519.54</ele><time>2026-05-10T00:04:50.000Z</time></trkpt>
        <trkpt lat="29.1625756" lon="103.794596"><ele>520.22</ele><time>2026-05-10T00:05:00.000Z</time></trkpt>
        <trkpt lat="29.1626391" lon="103.794674"><ele>519.27</ele><time>2026-05-10T00:05:18.000Z</time></trkpt>
        <trkpt lat="29.162731" lon="103.7946957"><ele>515.51</ele><time>2026-05-10T00:07:10.000Z</time></trkpt>
        <trkpt lat="29.1628222" lon="103.7946949"><ele>512.9</ele><time>2026-05-10T00:07:26.000Z</time></trkpt>
        <trkpt lat="29.1629112" lon="103.7947311"><ele>510.74</ele><time>2026-05-10T00:07:44.000Z</time></trkpt>
        <trkpt lat="29.163002" lon="103.7947707"><ele>509.39</ele><time>2026-05-10T00:07:56.000Z</time></trkpt>
        <trkpt lat="29.1630892" lon="103.7947447"><ele>508.7</ele><time>2026-05-10T00:08:14.000Z</time></trkpt>
        <trkpt lat="29.1631817" lon="103.7947211"><ele>508.12</ele><time>2026-05-10T00:08:28.000Z</time></trkpt>
        <trkpt lat="29.163286" lon="103.7947025"><ele>507.08</ele><time>2026-05-10T00:09:10.000Z</time></trkpt>
        <trkpt lat="29.1633815" lon="103.7946958"><ele>504.74</ele><time>2026-05-10T00:09:28.000Z</time></trkpt>
        <trkpt lat="29.1634768" lon="103.7946801"><ele>504.76</ele><time>2026-05-10T00:11:30.000Z</time></trkpt>
        <trkpt lat="29.1635721" lon="103.7946788"><ele>503.89</ele><time>2026-05-10T00:11:58.000Z</time></trkpt>
        <trkpt lat="29.1636289" lon="103.7945821"><ele>503.94</ele><time>2026-05-10T00:13:31.000Z</time></trkpt>
        <trkpt lat="29.1637223" lon="103.7946167"><ele>505.23</ele><time>2026-05-10T00:14:06.000Z</time></trkpt>
        <trkpt lat="29.1638012" lon="103.7946803"><ele>506.4</ele><time>2026-05-10T00:14:38.000Z</time></trkpt>
        <trkpt lat="29.1638892" lon="103.7946986"><ele>506.59</ele><time>2026-05-10T00:14:50.000Z</time></trkpt>
        <trkpt lat="29.1637937" lon="103.7946892"><ele>507.04</ele><time>2026-05-10T00:24:22.000Z</time></trkpt>
        <trkpt lat="29.1636967" lon="103.7946492"><ele>510.59</ele><time>2026-05-10T00:24:38.000Z</time></trkpt>
        <trkpt lat="29.1636061" lon="103.7946289"><ele>512.31</ele><time>2026-05-10T00:24:56.000Z</time></trkpt>
        <trkpt lat="29.1635268" lon="103.794679"><ele>513.27</ele><time>2026-05-10T00:25:38.000Z</time></trkpt>
        <trkpt lat="29.1634328" lon="103.7946916"><ele>512.32</ele><time>2026-05-10T00:25:58.000Z</time></trkpt>
        <trkpt lat="29.1633423" lon="103.794711"><ele>511.73</ele><time>2026-05-10T00:26:18.000Z</time></trkpt>
        <trkpt lat="29.1632516" lon="103.7947179"><ele>510.95</ele><time>2026-05-10T00:26:32.000Z</time></trkpt>
        <trkpt lat="29.1631594" lon="103.7947448"><ele>510.4</ele><time>2026-05-10T00:26:44.000Z</time></trkpt>
        <trkpt lat="29.1630599" lon="103.7947708"><ele>509.82</ele><time>2026-05-10T00:27:08.000Z</time></trkpt>
        <trkpt lat="29.1629627" lon="103.794802"><ele>508.34</ele><time>2026-05-10T00:27:22.000Z</time></trkpt>
        <trkpt lat="29.162871" lon="103.7948027"><ele>505.99</ele><time>2026-05-10T00:27:40.000Z</time></trkpt>
        <trkpt lat="29.1627771" lon="103.7947817"><ele>503.81</ele><time>2026-05-10T00:27:54.000Z</time></trkpt>
        <trkpt lat="29.1626853" lon="103.7947665"><ele>502.22</ele><time>2026-05-10T00:28:22.000Z</time></trkpt>
        <trkpt lat="29.1626103" lon="103.7946973"><ele>500.77</ele><time>2026-05-10T00:28:42.000Z</time></trkpt>
        <trkpt lat="29.1625481" lon="103.7946106"><ele>499.66</ele><time>2026-05-10T00:28:56.000Z</time></trkpt>
        <trkpt lat="29.1624484" lon="103.7945916"><ele>498.7</ele><time>2026-05-10T00:29:06.000Z</time></trkpt>
        <trkpt lat="29.1623517" lon="103.7945775"><ele>498.01</ele><time>2026-05-10T00:29:14.000Z</time></trkpt>
        <trkpt lat="29.1622624" lon="103.7945486"><ele>497.46</ele><time>2026-05-10T00:29:22.000Z</time></trkpt>
        <trkpt lat="29.1621634" lon="103.7945151"><ele>497.17</ele><time>2026-05-10T00:29:32.000Z</time></trkpt>
        <trkpt lat="29.1620515" lon="103.7945136"><ele>496.97</ele><time>2026-05-10T00:29:46.000Z</time></trkpt>
        <trkpt lat="29.1620697" lon="103.7945772"><ele>496.74</ele><time>2026-05-10T00:30:00.000Z</time></trkpt>
        <trkpt lat="29.1620614" lon="103.7946734"><ele>498.04</ele><time>2026-05-10T00:30:14.000Z</time></trkpt>
        <trkpt lat="29.1619903" lon="103.7946853"><ele>496.59</ele><time>2026-05-10T00:30:22.000Z</time></trkpt>
        <trkpt lat="29.1618977" lon="103.7946959"><ele>495.32</ele><time>2026-05-10T00:30:30.000Z</time></trkpt>
        <trkpt lat="29.1617844" lon="103.7946884"><ele>494.44</ele><time>2026-05-10T00:30:40.000Z</time></trkpt>
        <trkpt lat="29.1616801" lon="103.7946832"><ele>493.74</ele><time>2026-05-10T00:30:50.000Z</time></trkpt>
        <trkpt lat="29.1616045" lon="103.7947348"><ele>493.75</ele><time>2026-05-10T00:31:12.000Z</time></trkpt>
        <trkpt lat="29.1615209" lon="103.7947873"><ele>494.95</ele><time>2026-05-10T00:32:42.000Z</time></trkpt>
        <trkpt lat="29.1614363" lon="103.7948252"><ele>494.07</ele><time>2026-05-10T00:32:54.000Z</time></trkpt>
        <trkpt lat="29.1613803" lon="103.7949092"><ele>493.45</ele><time>2026-05-10T00:33:28.000Z</time></trkpt>
        <trkpt lat="29.1612978" lon="103.7949046"><ele>494.15</ele><time>2026-05-10T00:33:38.000Z</time></trkpt>
        <trkpt lat="29.161203" lon="103.794901"><ele>496.62</ele><time>2026-05-10T00:33:52.000Z</time></trkpt>
        <trkpt lat="29.1611397" lon="103.7949691"><ele>499.36</ele><time>2026-05-10T00:35:04.000Z</time></trkpt>
        <trkpt lat="29.1610422" lon="103.7949908"><ele>504.1</ele><time>2026-05-10T00:35:22.000Z</time></trkpt>
        <trkpt lat="29.1609505" lon="103.795013"><ele>508.19</ele><time>2026-05-10T00:35:36.000Z</time></trkpt>
        <trkpt lat="29.1608577" lon="103.795012"><ele>512.12</ele><time>2026-05-10T00:35:54.000Z</time></trkpt>
        <trkpt lat="29.1607681" lon="103.7949949"><ele>516.15</ele><time>2026-05-10T00:36:26.000Z</time></trkpt>
        <trkpt lat="29.1606822" lon="103.7949528"><ele>519.9</ele><time>2026-05-10T00:36:44.000Z</time></trkpt>
        <trkpt lat="29.1605897" lon="103.7948981"><ele>522.09</ele><time>2026-05-10T00:37:18.000Z</time></trkpt>
        <trkpt lat="29.1605545" lon="103.7949869"><ele>525.25</ele><time>2026-05-10T00:39:36.000Z</time></trkpt>
        <trkpt lat="29.1604737" lon="103.7950417"><ele>529.87</ele><time>2026-05-10T00:40:16.000Z</time></trkpt>
        <trkpt lat="29.1603838" lon="103.7950491"><ele>534.97</ele><time>2026-05-10T00:40:46.000Z</time></trkpt>
        <trkpt lat="29.1602918" lon="103.7950369"><ele>539.65</ele><time>2026-05-10T00:40:56.000Z</time></trkpt>
        <trkpt lat="29.1602207" lon="103.7950878"><ele>544.37</ele><time>2026-05-10T00:41:34.000Z</time></trkpt>
        <trkpt lat="29.1601639" lon="103.7951803"><ele>547.95</ele><time>2026-05-10T00:43:00.000Z</time></trkpt>
        <trkpt lat="29.1600739" lon="103.7951921"><ele>551.57</ele><time>2026-05-10T00:43:42.000Z</time></trkpt>
        <trkpt lat="29.1599929" lon="103.7952435"><ele>554.18</ele><time>2026-05-10T00:44:44.000Z</time></trkpt>
        <trkpt lat="29.1599317" lon="103.7953208"><ele>557.34</ele><time>2026-05-10T00:45:16.000Z</time></trkpt>
        <trkpt lat="29.1598813" lon="103.7954273"><ele>560.16</ele><time>2026-05-10T00:46:14.000Z</time></trkpt>
        <trkpt lat="29.1599655" lon="103.7954797"><ele>564.82</ele><time>2026-05-10T00:47:36.000Z</time></trkpt>
        <trkpt lat="29.1599655" lon="103.7955862"><ele>572.88</ele><time>2026-05-10T00:50:04.000Z</time></trkpt>
        <trkpt lat="29.1599795" lon="103.7956887"><ele>580.61</ele><time>2026-05-10T00:50:28.000Z</time></trkpt>
        <trkpt lat="29.1600604" lon="103.7957263"><ele>586.45</ele><time>2026-05-10T00:51:10.000Z</time></trkpt>
        <trkpt lat="29.1601415" lon="103.7956863"><ele>591</ele><time>2026-05-10T00:51:48.000Z</time></trkpt>
        <trkpt lat="29.1602275" lon="103.7957093"><ele>594.13</ele><time>2026-05-10T00:52:02.000Z</time></trkpt>
        <trkpt lat="29.1603185" lon="103.7957508"><ele>596.85</ele><time>2026-05-10T00:52:46.000Z</time></trkpt>
        <trkpt lat="29.160415" lon="103.795783"><ele>601.31</ele><time>2026-05-10T00:53:02.000Z</time></trkpt>
        <trkpt lat="29.1605129" lon="103.7958119"><ele>603.93</ele><time>2026-05-10T00:53:18.000Z</time></trkpt>
        <trkpt lat="29.1605931" lon="103.7958681"><ele>605.22</ele><time>2026-05-10T00:53:30.000Z</time></trkpt>
        <trkpt lat="29.1606816" lon="103.7959101"><ele>605.91</ele><time>2026-05-10T00:53:42.000Z</time></trkpt>
        <trkpt lat="29.1607638" lon="103.7959642"><ele>606.43</ele><time>2026-05-10T00:53:50.000Z</time></trkpt>
        <trkpt lat="29.1608461" lon="103.7960152"><ele>606.66</ele><time>2026-05-10T00:54:02.000Z</time></trkpt>
        <trkpt lat="29.1609355" lon="103.7960228"><ele>612.58</ele><time>2026-05-10T00:54:08.000Z</time></trkpt>
        <trkpt lat="29.1610358" lon="103.7960504"><ele>615.65</ele><time>2026-05-10T00:54:30.000Z</time></trkpt>
        <trkpt lat="29.1611313" lon="103.796052"><ele>613.65</ele><time>2026-05-10T00:54:42.000Z</time></trkpt>
        <trkpt lat="29.161231" lon="103.7960445"><ele>611.98</ele><time>2026-05-10T00:54:54.000Z</time></trkpt>
        <trkpt lat="29.1613216" lon="103.7960153"><ele>614.16</ele><time>2026-05-10T00:55:02.000Z</time></trkpt>
        <trkpt lat="29.1613848" lon="103.796076"><ele>615.01</ele><time>2026-05-10T00:55:18.000Z</time></trkpt>
        <trkpt lat="29.1614646" lon="103.79614"><ele>611.59</ele><time>2026-05-10T00:55:30.000Z</time></trkpt>
        <trkpt lat="29.1615542" lon="103.7961641"><ele>609.54</ele><time>2026-05-10T00:55:42.000Z</time></trkpt>
        <trkpt lat="29.1616434" lon="103.7962209"><ele>608.1</ele><time>2026-05-10T00:55:56.000Z</time></trkpt>
        <trkpt lat="29.1616696" lon="103.7963163"><ele>612.15</ele><time>2026-05-10T00:56:04.000Z</time></trkpt>
        <trkpt lat="29.1616508" lon="103.7964228"><ele>613.02</ele><time>2026-05-10T00:56:16.000Z</time></trkpt>
        <trkpt lat="29.1615768" lon="103.7965005"><ele>613.27</ele><time>2026-05-10T00:56:26.000Z</time></trkpt>
        <trkpt lat="29.161516" lon="103.7966124"><ele>613.3</ele><time>2026-05-10T00:56:36.000Z</time></trkpt>
        <trkpt lat="29.1614946" lon="103.7967233"><ele>612.75</ele><time>2026-05-10T00:56:44.000Z</time></trkpt>
        <trkpt lat="29.161479" lon="103.7967789"><ele>612.72</ele><time>2026-05-10T00:56:50.000Z</time></trkpt>
        <trkpt lat="29.1615054" lon="103.7968588"><ele>612.75</ele><time>2026-05-10T00:57:10.000Z</time></trkpt>
        <trkpt lat="29.1614961" lon="103.7969603"><ele>610.48</ele><time>2026-05-10T00:57:24.000Z</time></trkpt>
        <trkpt lat="29.1614889" lon="103.7970657"><ele>609.12</ele><time>2026-05-10T00:57:34.000Z</time></trkpt>
        <trkpt lat="29.1614832" lon="103.7971759"><ele>608.53</ele><time>2026-05-10T00:59:22.000Z</time></trkpt>
        <trkpt lat="29.1614681" lon="103.7972781"><ele>607.9</ele><time>2026-05-10T01:00:54.000Z</time></trkpt>
        <trkpt lat="29.1615616" lon="103.7973199"><ele>608.15</ele><time>2026-05-10T01:01:06.000Z</time></trkpt>
        <trkpt lat="29.161653" lon="103.7973311"><ele>608.59</ele><time>2026-05-10T01:01:16.000Z</time></trkpt>
        <trkpt lat="29.1617496" lon="103.7973464"><ele>609.35</ele><time>2026-05-10T01:01:30.000Z</time></trkpt>
        <trkpt lat="29.1617787" lon="103.7974132"><ele>609.13</ele><time>2026-05-10T01:01:56.000Z</time></trkpt>
        <trkpt lat="29.1617902" lon="103.7973285"><ele>609.26</ele><time>2026-05-10T01:05:10.000Z</time></trkpt>
        <trkpt lat="29.1617902" lon="103.7973285"><ele>609.26</ele><time>2026-05-10T01:05:33.000Z</time></trkpt>
      </trkseg>
      <trkseg>
        <trkpt lat="29.1617347" lon="103.7974501"><ele>610.5</ele><time>2026-05-10T01:05:34.000Z</time></trkpt>
        <trkpt lat="29.1617347" lon="103.7974501"><ele>610.5</ele><time>2026-05-10T01:06:04.000Z</time></trkpt>
        <trkpt lat="29.1616803" lon="103.7975392"><ele>610.81</ele><time>2026-05-10T01:06:08.000Z</time></trkpt>
        <trkpt lat="29.1614794" lon="103.7976863"><ele>611.04</ele><time>2026-05-10T01:06:16.000Z</time></trkpt>
        <trkpt lat="29.1613417" lon="103.7978009"><ele>611.32</ele><time>2026-05-10T01:06:20.000Z</time></trkpt>
        <trkpt lat="29.1612951" lon="103.7979069"><ele>611.91</ele><time>2026-05-10T01:06:22.000Z</time></trkpt>
        <trkpt lat="29.1613069" lon="103.798024"><ele>612.6</ele><time>2026-05-10T01:06:24.000Z</time></trkpt>
        <trkpt lat="29.1613422" lon="103.7981826"><ele>613.18</ele><time>2026-05-10T01:06:28.000Z</time></trkpt>
        <trkpt lat="29.1613431" lon="103.7983246"><ele>614.05</ele><time>2026-05-10T01:06:32.000Z</time></trkpt>
        <trkpt lat="29.1613005" lon="103.7984568"><ele>614.54</ele><time>2026-05-10T01:06:36.000Z</time></trkpt>
        <trkpt lat="29.1612245" lon="103.7985732"><ele>615.09</ele><time>2026-05-10T01:06:40.000Z</time></trkpt>
        <trkpt lat="29.1611069" lon="103.7986626"><ele>615.59</ele><time>2026-05-10T01:06:44.000Z</time></trkpt>
        <trkpt lat="29.1610012" lon="103.7987207"><ele>616.2</ele><time>2026-05-10T01:06:46.000Z</time></trkpt>
        <trkpt lat="29.1609124" lon="103.798779"><ele>616.63</ele><time>2026-05-10T01:06:48.000Z</time></trkpt>
        <trkpt lat="29.1608033" lon="103.7988933"><ele>617.03</ele><time>2026-05-10T01:06:52.000Z</time></trkpt>
        <trkpt lat="29.1606979" lon="103.7989987"><ele>617.95</ele><time>2026-05-10T01:06:56.000Z</time></trkpt>
        <trkpt lat="29.1605749" lon="103.799066"><ele>619.6</ele><time>2026-05-10T01:07:00.000Z</time></trkpt>
        <trkpt lat="29.1604377" lon="103.7991256"><ele>620.71</ele><time>2026-05-10T01:07:04.000Z</time></trkpt>
        <trkpt lat="29.1604126" lon="103.7991478"><ele>623.05</ele><time>2026-05-10T01:07:32.000Z</time></trkpt>
        <trkpt lat="29.1604881" lon="103.799174"><ele>628.4</ele><time>2026-05-10T01:08:06.000Z</time></trkpt>
        <trkpt lat="29.160644" lon="103.7992181"><ele>635.59</ele><time>2026-05-10T01:08:10.000Z</time></trkpt>
        <trkpt lat="29.1608421" lon="103.7992615"><ele>639.9</ele><time>2026-05-10T01:08:14.000Z</time></trkpt>
        <trkpt lat="29.1610276" lon="103.7992868"><ele>642.71</ele><time>2026-05-10T01:08:18.000Z</time></trkpt>
        <trkpt lat="29.1611464" lon="103.7993136"><ele>644.18</ele><time>2026-05-10T01:08:20.000Z</time></trkpt>
        <trkpt lat="29.1612337" lon="103.7993678"><ele>645.23</ele><time>2026-05-10T01:08:22.000Z</time></trkpt>
        <trkpt lat="29.1613403" lon="103.7994206"><ele>646.39</ele><time>2026-05-10T01:08:24.000Z</time></trkpt>
        <trkpt lat="29.1614516" lon="103.7994688"><ele>647.38</ele><time>2026-05-10T01:08:26.000Z</time></trkpt>
        <trkpt lat="29.1615566" lon="103.7995128"><ele>648.22</ele><time>2026-05-10T01:08:28.000Z</time></trkpt>
        <trkpt lat="29.1616657" lon="103.7995289"><ele>648.95</ele><time>2026-05-10T01:08:30.000Z</time></trkpt>
        <trkpt lat="29.1617712" lon="103.7995397"><ele>649.65</ele><time>2026-05-10T01:08:32.000Z</time></trkpt>
        <trkpt lat="29.1619157" lon="103.7995593"><ele>650.22</ele><time>2026-05-10T01:08:36.000Z</time></trkpt>
        <trkpt lat="29.1620405" lon="103.799516"><ele>650.43</ele><time>2026-05-10T01:08:38.000Z</time></trkpt>
        <trkpt lat="29.1621623" lon="103.7994207"><ele>650.13</ele><time>2026-05-10T01:08:40.000Z</time></trkpt>
        <trkpt lat="29.162281" lon="103.7993351"><ele>650.42</ele><time>2026-05-10T01:08:42.000Z</time></trkpt>
        <trkpt lat="29.162388" lon="103.7992965"><ele>651.36</ele><time>2026-05-10T01:08:44.000Z</time></trkpt>
        <trkpt lat="29.1624762" lon="103.7992595"><ele>652.35</ele><time>2026-05-10T01:08:46.000Z</time></trkpt>
        <trkpt lat="29.1626174" lon="103.7991653"><ele>653.2</ele><time>2026-05-10T01:08:50.000Z</time></trkpt>
        <trkpt lat="29.1627425" lon="103.7991276"><ele>654.05</ele><time>2026-05-10T01:08:52.000Z</time></trkpt>
        <trkpt lat="29.1628465" lon="103.7991307"><ele>655.02</ele><time>2026-05-10T01:08:54.000Z</time></trkpt>
        <trkpt lat="29.1629845" lon="103.7990989"><ele>656.07</ele><time>2026-05-10T01:08:58.000Z</time></trkpt>
        <trkpt lat="29.1631412" lon="103.7991123"><ele>657.14</ele><time>2026-05-10T01:09:02.000Z</time></trkpt>
        <trkpt lat="29.1632519" lon="103.7991701"><ele>658.09</ele><time>2026-05-10T01:09:04.000Z</time></trkpt>
        <trkpt lat="29.1633436" lon="103.799243"><ele>658.96</ele><time>2026-05-10T01:09:06.000Z</time></trkpt>
        <trkpt lat="29.1634213" lon="103.7993271"><ele>659.86</ele><time>2026-05-10T01:09:08.000Z</time></trkpt>
        <trkpt lat="29.1634803" lon="103.7994279"><ele>660.47</ele><time>2026-05-10T01:09:10.000Z</time></trkpt>
        <trkpt lat="29.1634717" lon="103.7996172"><ele>661.14</ele><time>2026-05-10T01:09:14.000Z</time></trkpt>
        <trkpt lat="29.163443" lon="103.7997785"><ele>662.4</ele><time>2026-05-10T01:09:16.000Z</time></trkpt>
        <trkpt lat="29.1634317" lon="103.7999049"><ele>663.46</ele><time>2026-05-10T01:09:18.000Z</time></trkpt>
        <trkpt lat="29.1635223" lon="103.8000198"><ele>664.28</ele><time>2026-05-10T01:09:22.000Z</time></trkpt>
        <trkpt lat="29.163624" lon="103.8000464"><ele>665.15</ele><time>2026-05-10T01:09:24.000Z</time></trkpt>
        <trkpt lat="29.1637241" lon="103.8000426"><ele>665.86</ele><time>2026-05-10T01:09:26.000Z</time></trkpt>
        <trkpt lat="29.1638466" lon="103.8000952"><ele>666.5</ele><time>2026-05-10T01:09:30.000Z</time></trkpt>
        <trkpt lat="29.163931" lon="103.8001793"><ele>667.41</ele><time>2026-05-10T01:09:32.000Z</time></trkpt>
        <trkpt lat="29.1640182" lon="103.800234"><ele>668.05</ele><time>2026-05-10T01:09:34.000Z</time></trkpt>
        <trkpt lat="29.1641198" lon="103.8002338"><ele>668.65</ele><time>2026-05-10T01:09:36.000Z</time></trkpt>
        <trkpt lat="29.1642369" lon="103.8002355"><ele>669.42</ele><time>2026-05-10T01:09:40.000Z</time></trkpt>
        <trkpt lat="29.164339" lon="103.8002719"><ele>670.59</ele><time>2026-05-10T01:09:44.000Z</time></trkpt>
        <trkpt lat="29.1644349" lon="103.8002859"><ele>671.77</ele><time>2026-05-10T01:09:46.000Z</time></trkpt>
        <trkpt lat="29.1645505" lon="103.8002454"><ele>672.2</ele><time>2026-05-10T01:09:48.000Z</time></trkpt>
        <trkpt lat="29.1645505" lon="103.8002454"><ele>672.2</ele><time>2026-05-10T01:09:49.000Z</time></trkpt>
      </trkseg>
  </trk>
</gpx>